sensor_id;sensor_type;location;lat;lon;timestamp;P1;durP1;ratioP1;P2;durP2;ratioP2
35891;SDS011;21993;42.672;23.296;2024-03-22T00:01:39;17.93;;;8.13;;
35891;SDS011;21993;42.672;23.296;2024-03-22T00:04:05;13.87;;;7.30;;
35891;SDS011;21993;42.672;23.296;2024-03-22T00:06:30;13.37;;;7.80;;
35891;SDS011;21993;42.672;23.296;2024-03-22T00:08:56;15.27;;;8.33;;
35891;SDS011;21993;42.672;23.296;2024-03-22T00:11:21;15.97;;;8.87;;
35891;SDS011;21993;42.672;23.296;2024-03-22T00:13:47;15.03;;;8.53;;
35891;SDS011;21993;42.672;23.296;2024-03-22T00:16:12;22.43;;;9.90;;
35891;SDS011;21993;42.672;23.296;2024-03-22T00:18:38;16.93;;;9.27;;
35891;SDS011;21993;42.672;23.296;2024-03-22T00:21:03;17.37;;;8.73;;
35891;SDS011;21993;42.672;23.296;2024-03-22T00:23:29;18.70;;;8.33;;
35891;SDS011;21993;42.672;23.296;2024-03-22T00:25:55;12.07;;;7.70;;
35891;SDS011;21993;42.672;23.296;2024-03-22T00:28:21;15.53;;;8.10;;
35891;SDS011;21993;42.672;23.296;2024-03-22T00:30:46;22.20;;;8.80;;
35891;SDS011;21993;42.672;23.296;2024-03-22T00:33:12;14.03;;;7.03;;
35891;SDS011;21993;42.672;23.296;2024-03-22T00:35:37;16.73;;;7.63;;
35891;SDS011;21993;42.672;23.296;2024-03-22T00:38:03;16.03;;;7.60;;
35891;SDS011;21993;42.672;23.296;2024-03-22T00:40:29;17.50;;;9.00;;
35891;SDS011;21993;42.672;23.296;2024-03-22T00:42:54;15.60;;;7.80;;
35891;SDS011;21993;42.672;23.296;2024-03-22T00:45:20;16.47;;;8.60;;
35891;SDS011;21993;42.672;23.296;2024-03-22T00:47:45;12.17;;;7.33;;
35891;SDS011;21993;42.672;23.296;2024-03-22T00:50:11;17.83;;;7.57;;
35891;SDS011;21993;42.672;23.296;2024-03-22T00:52:37;11.47;;;7.73;;
35891;SDS011;21993;42.672;23.296;2024-03-22T00:55:04;18.30;;;8.63;;
35891;SDS011;21993;42.672;23.296;2024-03-22T00:57:30;16.07;;;7.70;;
35891;SDS011;21993;42.672;23.296;2024-03-22T00:59:56;12.80;;;7.23;;
35891;SDS011;21993;42.672;23.296;2024-03-22T01:02:21;14.10;;;8.00;;
35891;SDS011;21993;42.672;23.296;2024-03-22T01:04:48;13.23;;;7.70;;
35891;SDS011;21993;42.672;23.296;2024-03-22T01:07:13;12.73;;;7.57;;
35891;SDS011;21993;42.672;23.296;2024-03-22T01:09:39;11.57;;;7.20;;
35891;SDS011;21993;42.672;23.296;2024-03-22T01:12:04;16.30;;;7.57;;
35891;SDS011;21993;42.672;23.296;2024-03-22T01:14:30;11.70;;;7.50;;
35891;SDS011;21993;42.672;23.296;2024-03-22T01:16:56;16.20;;;7.27;;
35891;SDS011;21993;42.672;23.296;2024-03-22T01:19:22;15.23;;;7.57;;
35891;SDS011;21993;42.672;23.296;2024-03-22T01:21:48;13.50;;;7.33;;
35891;SDS011;21993;42.672;23.296;2024-03-22T01:24:14;11.60;;;7.27;;
35891;SDS011;21993;42.672;23.296;2024-03-22T01:26:39;12.80;;;7.40;;
35891;SDS011;21993;42.672;23.296;2024-03-22T01:29:05;18.93;;;8.63;;
35891;SDS011;21993;42.672;23.296;2024-03-22T01:31:30;16.87;;;7.83;;
35891;SDS011;21993;42.672;23.296;2024-03-22T01:33:56;13.53;;;7.70;;
35891;SDS011;21993;42.672;23.296;2024-03-22T01:36:21;17.80;;;8.83;;
35891;SDS011;21993;42.672;23.296;2024-03-22T01:38:47;17.50;;;8.50;;
35891;SDS011;21993;42.672;23.296;2024-03-22T01:41:12;16.07;;;8.73;;
35891;SDS011;21993;42.672;23.296;2024-03-22T01:43:38;16.97;;;8.30;;
35891;SDS011;21993;42.672;23.296;2024-03-22T01:46:04;13.20;;;7.93;;
35891;SDS011;21993;42.672;23.296;2024-03-22T01:48:32;19.03;;;7.80;;
35891;SDS011;21993;42.672;23.296;2024-03-22T01:50:59;14.97;;;7.90;;
35891;SDS011;21993;42.672;23.296;2024-03-22T01:53:25;16.40;;;8.70;;
35891;SDS011;21993;42.672;23.296;2024-03-22T01:55:51;15.00;;;7.47;;
35891;SDS011;21993;42.672;23.296;2024-03-22T01:58:16;17.27;;;8.40;;
35891;SDS011;21993;42.672;23.296;2024-03-22T02:00:43;16.07;;;8.43;;
35891;SDS011;21993;42.672;23.296;2024-03-22T02:03:09;12.50;;;8.40;;
35891;SDS011;21993;42.672;23.296;2024-03-22T02:05:34;14.27;;;8.17;;
35891;SDS011;21993;42.672;23.296;2024-03-22T02:08:00;17.93;;;8.07;;
35891;SDS011;21993;42.672;23.296;2024-03-22T02:10:26;16.90;;;8.10;;
35891;SDS011;21993;42.672;23.296;2024-03-22T02:12:51;12.70;;;7.50;;
35891;SDS011;21993;42.672;23.296;2024-03-22T02:15:17;14.53;;;7.70;;
35891;SDS011;21993;42.672;23.296;2024-03-22T02:17:42;11.37;;;7.77;;
35891;SDS011;21993;42.672;23.296;2024-03-22T02:20:08;14.00;;;8.13;;
35891;SDS011;21993;42.672;23.296;2024-03-22T02:22:35;14.33;;;8.17;;
35891;SDS011;21993;42.672;23.296;2024-03-22T02:25:00;16.17;;;8.30;;
35891;SDS011;21993;42.672;23.296;2024-03-22T02:27:26;12.13;;;7.97;;
35891;SDS011;21993;42.672;23.296;2024-03-22T02:29:51;12.73;;;7.60;;
35891;SDS011;21993;42.672;23.296;2024-03-22T02:32:17;13.20;;;9.03;;
35891;SDS011;21993;42.672;23.296;2024-03-22T02:34:42;14.73;;;7.17;;
35891;SDS011;21993;42.672;23.296;2024-03-22T02:37:08;18.13;;;7.83;;
35891;SDS011;21993;42.672;23.296;2024-03-22T02:39:33;15.27;;;7.57;;
35891;SDS011;21993;42.672;23.296;2024-03-22T02:41:59;11.23;;;6.53;;
35891;SDS011;21993;42.672;23.296;2024-03-22T02:44:24;14.07;;;8.53;;
35891;SDS011;21993;42.672;23.296;2024-03-22T02:46:50;17.73;;;7.80;;
35891;SDS011;21993;42.672;23.296;2024-03-22T02:49:15;12.83;;;6.83;;
35891;SDS011;21993;42.672;23.296;2024-03-22T02:51:41;16.13;;;8.00;;
35891;SDS011;21993;42.672;23.296;2024-03-22T02:54:07;12.07;;;7.87;;
35891;SDS011;21993;42.672;23.296;2024-03-22T02:56:32;12.77;;;7.63;;
35891;SDS011;21993;42.672;23.296;2024-03-22T02:58:58;16.47;;;8.23;;
35891;SDS011;21993;42.672;23.296;2024-03-22T03:01:23;17.70;;;9.30;;
35891;SDS011;21993;42.672;23.296;2024-03-22T03:03:49;17.87;;;9.37;;
35891;SDS011;21993;42.672;23.296;2024-03-22T03:06:14;18.23;;;9.77;;
35891;SDS011;21993;42.672;23.296;2024-03-22T03:08:41;14.70;;;9.10;;
35891;SDS011;21993;42.672;23.296;2024-03-22T03:11:07;15.80;;;8.37;;
35891;SDS011;21993;42.672;23.296;2024-03-22T03:13:32;16.77;;;9.97;;
35891;SDS011;21993;42.672;23.296;2024-03-22T03:15:58;17.77;;;8.93;;
35891;SDS011;21993;42.672;23.296;2024-03-22T03:18:23;18.67;;;10.50;;
35891;SDS011;21993;42.672;23.296;2024-03-22T03:20:49;22.57;;;11.10;;
35891;SDS011;21993;42.672;23.296;2024-03-22T03:23:15;22.83;;;12.03;;
35891;SDS011;21993;42.672;23.296;2024-03-22T03:25:40;20.47;;;11.67;;
35891;SDS011;21993;42.672;23.296;2024-03-22T03:28:06;22.13;;;12.00;;
35891;SDS011;21993;42.672;23.296;2024-03-22T03:30:33;19.77;;;11.20;;
35891;SDS011;21993;42.672;23.296;2024-03-22T03:32:59;27.80;;;12.13;;
35891;SDS011;21993;42.672;23.296;2024-03-22T03:35:25;25.90;;;14.03;;
35891;SDS011;21993;42.672;23.296;2024-03-22T03:37:51;23.43;;;12.50;;
35891;SDS011;21993;42.672;23.296;2024-03-22T03:40:16;25.40;;;12.83;;
35891;SDS011;21993;42.672;23.296;2024-03-22T03:42:42;25.23;;;13.27;;
35891;SDS011;21993;42.672;23.296;2024-03-22T03:45:07;21.07;;;12.63;;
35891;SDS011;21993;42.672;23.296;2024-03-22T03:47:33;19.73;;;13.07;;
35891;SDS011;21993;42.672;23.296;2024-03-22T03:49:59;24.07;;;12.40;;
35891;SDS011;21993;42.672;23.296;2024-03-22T03:52:24;25.10;;;12.70;;
35891;SDS011;21993;42.672;23.296;2024-03-22T03:54:50;19.80;;;12.03;;
35891;SDS011;21993;42.672;23.296;2024-03-22T03:57:15;19.43;;;12.07;;
35891;SDS011;21993;42.672;23.296;2024-03-22T03:59:41;26.67;;;13.17;;
35891;SDS011;21993;42.672;23.296;2024-03-22T04:02:06;23.40;;;13.27;;
35891;SDS011;21993;42.672;23.296;2024-03-22T04:04:32;21.73;;;11.67;;
35891;SDS011;21993;42.672;23.296;2024-03-22T04:06:57;23.53;;;12.03;;
35891;SDS011;21993;42.672;23.296;2024-03-22T04:09:23;17.27;;;11.00;;
35891;SDS011;21993;42.672;23.296;2024-03-22T04:11:48;16.90;;;10.27;;
35891;SDS011;21993;42.672;23.296;2024-03-22T04:14:14;22.83;;;10.83;;
35891;SDS011;21993;42.672;23.296;2024-03-22T04:16:40;14.53;;;10.60;;
35891;SDS011;21993;42.672;23.296;2024-03-22T04:19:05;21.13;;;11.00;;
35891;SDS011;21993;42.672;23.296;2024-03-22T04:21:31;15.83;;;11.67;;
35891;SDS011;21993;42.672;23.296;2024-03-22T04:23:56;19.93;;;11.57;;
35891;SDS011;21993;42.672;23.296;2024-03-22T04:26:22;19.73;;;11.40;;
35891;SDS011;21993;42.672;23.296;2024-03-22T04:28:48;18.80;;;11.73;;
35891;SDS011;21993;42.672;23.296;2024-03-22T04:31:14;22.30;;;11.30;;
35891;SDS011;21993;42.672;23.296;2024-03-22T04:33:40;17.70;;;11.40;;
35891;SDS011;21993;42.672;23.296;2024-03-22T04:36:06;23.70;;;11.60;;
35891;SDS011;21993;42.672;23.296;2024-03-22T04:38:34;22.77;;;11.97;;
35891;SDS011;21993;42.672;23.296;2024-03-22T04:41:00;24.33;;;12.17;;
35891;SDS011;21993;42.672;23.296;2024-03-22T04:43:26;17.80;;;11.27;;
35891;SDS011;21993;42.672;23.296;2024-03-22T04:45:53;19.47;;;10.43;;
35891;SDS011;21993;42.672;23.296;2024-03-22T04:48:19;23.87;;;11.20;;
35891;SDS011;21993;42.672;23.296;2024-03-22T04:50:52;21.77;;;11.50;;
35891;SDS011;21993;42.672;23.296;2024-03-22T04:53:19;24.33;;;11.27;;
35891;SDS011;21993;42.672;23.296;2024-03-22T04:55:50;22.50;;;10.73;;
35891;SDS011;21993;42.672;23.296;2024-03-22T04:58:18;21.07;;;11.97;;
35891;SDS011;21993;42.672;23.296;2024-03-22T05:00:46;23.67;;;12.67;;
35891;SDS011;21993;42.672;23.296;2024-03-22T05:03:15;36.27;;;13.50;;
35891;SDS011;21993;42.672;23.296;2024-03-22T05:05:41;18.53;;;9.37;;
35891;SDS011;21993;42.672;23.296;2024-03-22T05:08:08;19.70;;;9.20;;
35891;SDS011;21993;42.672;23.296;2024-03-22T05:10:35;30.93;;;12.27;;
35891;SDS011;21993;42.672;23.296;2024-03-22T05:13:01;25.73;;;10.40;;
35891;SDS011;21993;42.672;23.296;2024-03-22T05:15:27;25.63;;;10.97;;
35891;SDS011;21993;42.672;23.296;2024-03-22T05:17:53;23.90;;;10.70;;
35891;SDS011;21993;42.672;23.296;2024-03-22T05:20:21;17.87;;;8.83;;
35891;SDS011;21993;42.672;23.296;2024-03-22T05:22:47;21.43;;;9.20;;
35891;SDS011;21993;42.672;23.296;2024-03-22T05:25:13;16.87;;;8.53;;
35891;SDS011;21993;42.672;23.296;2024-03-22T05:27:40;13.43;;;7.37;;
35891;SDS011;21993;42.672;23.296;2024-03-22T05:30:09;12.87;;;7.43;;
35891;SDS011;21993;42.672;23.296;2024-03-22T05:32:35;14.07;;;7.27;;
35891;SDS011;21993;42.672;23.296;2024-03-22T05:35:01;17.80;;;9.83;;
35891;SDS011;21993;42.672;23.296;2024-03-22T05:37:26;17.83;;;9.40;;
35891;SDS011;21993;42.672;23.296;2024-03-22T05:39:52;12.67;;;7.83;;
35891;SDS011;21993;42.672;23.296;2024-03-22T05:42:19;23.33;;;9.77;;
35891;SDS011;21993;42.672;23.296;2024-03-22T05:44:44;16.40;;;8.97;;
35891;SDS011;21993;42.672;23.296;2024-03-22T05:47:10;18.10;;;9.77;;
35891;SDS011;21993;42.672;23.296;2024-03-22T05:49:36;15.80;;;8.97;;
35891;SDS011;21993;42.672;23.296;2024-03-22T05:52:02;19.73;;;9.60;;
35891;SDS011;21993;42.672;23.296;2024-03-22T05:54:27;19.00;;;7.90;;
35891;SDS011;21993;42.672;23.296;2024-03-22T05:56:53;13.77;;;7.47;;
35891;SDS011;21993;42.672;23.296;2024-03-22T05:59:19;14.83;;;8.13;;
35891;SDS011;21993;42.672;23.296;2024-03-22T06:01:44;16.97;;;9.10;;
35891;SDS011;21993;42.672;23.296;2024-03-22T06:04:10;16.37;;;8.63;;
35891;SDS011;21993;42.672;23.296;2024-03-22T06:06:35;14.40;;;8.07;;
35891;SDS011;21993;42.672;23.296;2024-03-22T06:09:01;18.90;;;9.03;;
35891;SDS011;21993;42.672;23.296;2024-03-22T06:11:34;15.60;;;9.70;;
35891;SDS011;21993;42.672;23.296;2024-03-22T06:14:00;19.10;;;8.80;;
35891;SDS011;21993;42.672;23.296;2024-03-22T06:16:26;14.87;;;8.47;;
35891;SDS011;21993;42.672;23.296;2024-03-22T06:18:52;19.57;;;9.53;;
35891;SDS011;21993;42.672;23.296;2024-03-22T06:21:17;14.30;;;8.73;;
35891;SDS011;21993;42.672;23.296;2024-03-22T06:23:49;17.23;;;9.70;;
35891;SDS011;21993;42.672;23.296;2024-03-22T06:26:15;16.33;;;8.67;;
35891;SDS011;21993;42.672;23.296;2024-03-22T06:28:41;19.77;;;8.83;;
35891;SDS011;21993;42.672;23.296;2024-03-22T06:31:07;14.57;;;7.63;;
35891;SDS011;21993;42.672;23.296;2024-03-22T06:33:33;12.87;;;6.93;;
35891;SDS011;21993;42.672;23.296;2024-03-22T06:35:58;13.03;;;6.93;;
35891;SDS011;21993;42.672;23.296;2024-03-22T06:38:24;10.30;;;7.17;;
35891;SDS011;21993;42.672;23.296;2024-03-22T06:40:50;10.93;;;6.90;;
35891;SDS011;21993;42.672;23.296;2024-03-22T06:43:16;9.10;;;6.20;;
35891;SDS011;21993;42.672;23.296;2024-03-22T06:45:41;9.07;;;5.63;;
35891;SDS011;21993;42.672;23.296;2024-03-22T06:48:07;8.00;;;5.60;;
35891;SDS011;21993;42.672;23.296;2024-03-22T06:50:33;11.30;;;6.57;;
35891;SDS011;21993;42.672;23.296;2024-03-22T06:52:58;8.47;;;6.40;;
35891;SDS011;21993;42.672;23.296;2024-03-22T06:55:24;12.80;;;6.87;;
35891;SDS011;21993;42.672;23.296;2024-03-22T06:57:49;18.53;;;7.53;;
35891;SDS011;21993;42.672;23.296;2024-03-22T07:00:16;14.73;;;7.80;;
35891;SDS011;21993;42.672;23.296;2024-03-22T07:02:42;14.03;;;7.43;;
35891;SDS011;21993;42.672;23.296;2024-03-22T07:05:08;13.27;;;8.07;;
35891;SDS011;21993;42.672;23.296;2024-03-22T07:07:34;15.10;;;7.37;;
35891;SDS011;21993;42.672;23.296;2024-03-22T07:10:00;16.97;;;8.00;;
35891;SDS011;21993;42.672;23.296;2024-03-22T07:12:27;12.50;;;7.83;;
35891;SDS011;21993;42.672;23.296;2024-03-22T07:14:52;12.80;;;7.77;;
35891;SDS011;21993;42.672;23.296;2024-03-22T07:17:18;11.77;;;7.67;;
35891;SDS011;21993;42.672;23.296;2024-03-22T07:19:49;14.93;;;8.47;;
35891;SDS011;21993;42.672;23.296;2024-03-22T07:22:16;18.63;;;8.13;;
35891;SDS011;21993;42.672;23.296;2024-03-22T07:24:41;14.60;;;9.37;;
35891;SDS011;21993;42.672;23.296;2024-03-22T07:27:07;14.07;;;8.20;;
35891;SDS011;21993;42.672;23.296;2024-03-22T07:29:32;16.60;;;7.97;;
35891;SDS011;21993;42.672;23.296;2024-03-22T07:31:58;20.07;;;9.23;;
35891;SDS011;21993;42.672;23.296;2024-03-22T07:34:23;14.93;;;9.23;;
35891;SDS011;21993;42.672;23.296;2024-03-22T07:36:49;15.13;;;8.03;;
35891;SDS011;21993;42.672;23.296;2024-03-22T07:39:15;20.97;;;8.70;;
35891;SDS011;21993;42.672;23.296;2024-03-22T07:41:40;16.47;;;8.40;;
35891;SDS011;21993;42.672;23.296;2024-03-22T07:44:06;14.87;;;8.83;;
35891;SDS011;21993;42.672;23.296;2024-03-22T07:46:31;22.07;;;10.90;;
35891;SDS011;21993;42.672;23.296;2024-03-22T07:48:57;17.10;;;8.63;;
35891;SDS011;21993;42.672;23.296;2024-03-22T07:51:24;19.03;;;9.60;;
35891;SDS011;21993;42.672;23.296;2024-03-22T07:53:49;18.30;;;8.47;;
35891;SDS011;21993;42.672;23.296;2024-03-22T07:56:16;8.80;;;6.10;;
35891;SDS011;21993;42.672;23.296;2024-03-22T07:58:42;12.13;;;6.37;;
35891;SDS011;21993;42.672;23.296;2024-03-22T08:01:08;15.23;;;6.87;;
35891;SDS011;21993;42.672;23.296;2024-03-22T08:03:34;9.87;;;5.67;;
35891;SDS011;21993;42.672;23.296;2024-03-22T08:05:59;13.53;;;6.53;;
35891;SDS011;21993;42.672;23.296;2024-03-22T08:08:25;10.47;;;6.27;;
35891;SDS011;21993;42.672;23.296;2024-03-22T08:10:50;9.20;;;4.97;;
35891;SDS011;21993;42.672;23.296;2024-03-22T08:13:16;6.70;;;4.60;;
35891;SDS011;21993;42.672;23.296;2024-03-22T08:15:41;9.50;;;5.33;;
35891;SDS011;21993;42.672;23.296;2024-03-22T08:18:10;7.00;;;4.57;;
35891;SDS011;21993;42.672;23.296;2024-03-22T08:20:36;7.60;;;4.23;;
35891;SDS011;21993;42.672;23.296;2024-03-22T08:23:03;6.00;;;4.13;;
35891;SDS011;21993;42.672;23.296;2024-03-22T08:25:29;7.43;;;4.40;;
35891;SDS011;21993;42.672;23.296;2024-03-22T08:27:55;5.87;;;4.13;;
35891;SDS011;21993;42.672;23.296;2024-03-22T08:30:21;5.10;;;3.97;;
35891;SDS011;21993;42.672;23.296;2024-03-22T08:32:48;5.90;;;4.00;;
35891;SDS011;21993;42.672;23.296;2024-03-22T08:35:14;7.53;;;3.67;;
35891;SDS011;21993;42.672;23.296;2024-03-22T08:37:40;4.50;;;3.60;;
35891;SDS011;21993;42.672;23.296;2024-03-22T08:40:05;8.17;;;3.97;;
35891;SDS011;21993;42.672;23.296;2024-03-22T08:42:32;4.10;;;3.70;;
35891;SDS011;21993;42.672;23.296;2024-03-22T08:44:58;5.37;;;4.50;;
35891;SDS011;21993;42.672;23.296;2024-03-22T08:47:24;11.57;;;4.57;;
35891;SDS011;21993;42.672;23.296;2024-03-22T08:49:49;5.23;;;4.10;;
35891;SDS011;21993;42.672;23.296;2024-03-22T08:52:15;5.70;;;3.80;;
35891;SDS011;21993;42.672;23.296;2024-03-22T08:54:40;6.03;;;3.20;;
35891;SDS011;21993;42.672;23.296;2024-03-22T08:57:06;6.37;;;3.93;;
35891;SDS011;21993;42.672;23.296;2024-03-22T08:59:31;6.23;;;3.60;;
35891;SDS011;21993;42.672;23.296;2024-03-22T09:01:57;5.63;;;3.47;;
35891;SDS011;21993;42.672;23.296;2024-03-22T09:04:24;5.23;;;3.60;;
35891;SDS011;21993;42.672;23.296;2024-03-22T09:06:50;4.30;;;2.90;;
35891;SDS011;21993;42.672;23.296;2024-03-22T09:09:15;5.23;;;3.83;;
35891;SDS011;21993;42.672;23.296;2024-03-22T09:11:42;3.73;;;3.00;;
35891;SDS011;21993;42.672;23.296;2024-03-22T09:14:07;5.43;;;3.17;;
35891;SDS011;21993;42.672;23.296;2024-03-22T09:16:33;6.17;;;3.43;;
35891;SDS011;21993;42.672;23.296;2024-03-22T09:18:59;5.67;;;3.97;;
35891;SDS011;21993;42.672;23.296;2024-03-22T09:21:25;4.40;;;3.20;;
35891;SDS011;21993;42.672;23.296;2024-03-22T09:23:51;4.63;;;3.60;;
35891;SDS011;21993;42.672;23.296;2024-03-22T09:26:16;6.13;;;3.67;;
35891;SDS011;21993;42.672;23.296;2024-03-22T09:28:42;6.17;;;3.17;;
35891;SDS011;21993;42.672;23.296;2024-03-22T09:31:07;3.37;;;3.07;;
35891;SDS011;21993;42.672;23.296;2024-03-22T09:33:33;4.40;;;3.10;;
35891;SDS011;21993;42.672;23.296;2024-03-22T09:35:59;5.20;;;2.80;;
35891;SDS011;21993;42.672;23.296;2024-03-22T09:38:26;4.53;;;3.37;;
35891;SDS011;21993;42.672;23.296;2024-03-22T09:40:55;3.80;;;2.97;;
35891;SDS011;21993;42.672;23.296;2024-03-22T09:43:21;5.33;;;2.90;;
35891;SDS011;21993;42.672;23.296;2024-03-22T09:45:50;4.27;;;2.90;;
35891;SDS011;21993;42.672;23.296;2024-03-22T09:48:19;4.57;;;3.30;;
35891;SDS011;21993;42.672;23.296;2024-03-22T09:50:48;6.77;;;3.00;;
35891;SDS011;21993;42.672;23.296;2024-03-22T09:53:18;5.07;;;3.33;;
35891;SDS011;21993;42.672;23.296;2024-03-22T09:55:45;6.13;;;3.10;;
35891;SDS011;21993;42.672;23.296;2024-03-22T09:58:12;3.77;;;3.30;;
35891;SDS011;21993;42.672;23.296;2024-03-22T10:00:38;5.10;;;3.43;;
35891;SDS011;21993;42.672;23.296;2024-03-22T10:03:03;3.80;;;3.07;;
35891;SDS011;21993;42.672;23.296;2024-03-22T10:05:30;5.77;;;3.40;;
35891;SDS011;21993;42.672;23.296;2024-03-22T10:07:57;3.90;;;3.23;;
35891;SDS011;21993;42.672;23.296;2024-03-22T10:10:23;6.87;;;3.13;;
35891;SDS011;21993;42.672;23.296;2024-03-22T10:12:48;8.33;;;3.33;;
35891;SDS011;21993;42.672;23.296;2024-03-22T10:15:14;4.47;;;3.50;;
35891;SDS011;21993;42.672;23.296;2024-03-22T10:17:40;3.93;;;3.17;;
35891;SDS011;21993;42.672;23.296;2024-03-22T10:20:06;3.83;;;3.27;;
35891;SDS011;21993;42.672;23.296;2024-03-22T10:22:41;8.97;;;3.77;;
35891;SDS011;21993;42.672;23.296;2024-03-22T10:25:07;3.73;;;3.40;;
35891;SDS011;21993;42.672;23.296;2024-03-22T10:27:33;7.23;;;3.93;;
35891;SDS011;21993;42.672;23.296;2024-03-22T10:29:59;3.77;;;2.87;;
35891;SDS011;21993;42.672;23.296;2024-03-22T10:32:25;3.83;;;2.53;;
35891;SDS011;21993;42.672;23.296;2024-03-22T10:34:50;4.67;;;3.30;;
35891;SDS011;21993;42.672;23.296;2024-03-22T10:37:16;3.57;;;2.73;;
35891;SDS011;21993;42.672;23.296;2024-03-22T10:39:42;6.50;;;3.10;;
35891;SDS011;21993;42.672;23.296;2024-03-22T10:42:13;4.63;;;2.80;;
35891;SDS011;21993;42.672;23.296;2024-03-22T10:44:39;3.77;;;2.80;;
35891;SDS011;21993;42.672;23.296;2024-03-22T10:47:06;4.23;;;3.40;;
35891;SDS011;21993;42.672;23.296;2024-03-22T10:49:35;5.97;;;3.83;;
35891;SDS011;21993;42.672;23.296;2024-03-22T10:52:02;3.40;;;2.57;;
35891;SDS011;21993;42.672;23.296;2024-03-22T10:54:39;4.20;;;2.77;;
35891;SDS011;21993;42.672;23.296;2024-03-22T10:57:13;3.47;;;2.77;;
35891;SDS011;21993;42.672;23.296;2024-03-22T10:59:42;5.00;;;3.40;;
35891;SDS011;21993;42.672;23.296;2024-03-22T11:02:10;3.90;;;2.97;;
35891;SDS011;21993;42.672;23.296;2024-03-22T11:04:37;5.53;;;2.73;;
35891;SDS011;21993;42.672;23.296;2024-03-22T11:07:02;3.47;;;2.80;;
35891;SDS011;21993;42.672;23.296;2024-03-22T11:09:28;3.43;;;2.90;;
35891;SDS011;21993;42.672;23.296;2024-03-22T11:11:55;3.57;;;3.10;;
35891;SDS011;21993;42.672;23.296;2024-03-22T11:14:25;3.53;;;2.90;;
35891;SDS011;21993;42.672;23.296;2024-03-22T11:16:51;3.17;;;2.83;;
35891;SDS011;21993;42.672;23.296;2024-03-22T11:19:20;6.77;;;3.57;;
35891;SDS011;21993;42.672;23.296;2024-03-22T11:21:46;4.70;;;2.90;;
35891;SDS011;21993;42.672;23.296;2024-03-22T11:24:13;8.30;;;2.93;;
35891;SDS011;21993;42.672;23.296;2024-03-22T11:26:38;4.07;;;2.63;;
35891;SDS011;21993;42.672;23.296;2024-03-22T11:29:05;5.37;;;3.43;;
35891;SDS011;21993;42.672;23.296;2024-03-22T11:31:31;4.60;;;3.50;;
35891;SDS011;21993;42.672;23.296;2024-03-22T11:33:57;7.03;;;3.17;;
35891;SDS011;21993;42.672;23.296;2024-03-22T11:36:23;4.20;;;3.20;;
35891;SDS011;21993;42.672;23.296;2024-03-22T11:38:48;4.60;;;3.37;;
35891;SDS011;21993;42.672;23.296;2024-03-22T11:41:19;5.63;;;3.07;;
35891;SDS011;21993;42.672;23.296;2024-03-22T11:43:53;4.00;;;3.00;;
35891;SDS011;21993;42.672;23.296;2024-03-22T11:46:20;3.43;;;2.57;;
35891;SDS011;21993;42.672;23.296;2024-03-22T11:48:50;3.97;;;2.93;;
35891;SDS011;21993;42.672;23.296;2024-03-22T11:51:19;3.90;;;2.80;;
35891;SDS011;21993;42.672;23.296;2024-03-22T11:53:52;4.93;;;2.83;;
35891;SDS011;21993;42.672;23.296;2024-03-22T11:56:19;4.50;;;3.30;;
35891;SDS011;21993;42.672;23.296;2024-03-22T11:58:46;2.90;;;2.53;;
35891;SDS011;21993;42.672;23.296;2024-03-22T12:01:13;4.27;;;2.80;;
35891;SDS011;21993;42.672;23.296;2024-03-22T12:03:44;4.10;;;3.00;;
35891;SDS011;21993;42.672;23.296;2024-03-22T12:06:12;6.80;;;3.27;;
35891;SDS011;21993;42.672;23.296;2024-03-22T12:08:38;5.57;;;3.13;;
35891;SDS011;21993;42.672;23.296;2024-03-22T12:11:06;5.43;;;3.13;;
35891;SDS011;21993;42.672;23.296;2024-03-22T12:13:33;4.30;;;3.20;;
35891;SDS011;21993;42.672;23.296;2024-03-22T12:15:59;4.83;;;2.93;;
35891;SDS011;21993;42.672;23.296;2024-03-22T12:18:24;8.50;;;3.17;;
35891;SDS011;21993;42.672;23.296;2024-03-22T12:20:50;3.00;;;2.70;;
35891;SDS011;21993;42.672;23.296;2024-03-22T12:23:15;3.87;;;3.10;;
35891;SDS011;21993;42.672;23.296;2024-03-22T12:25:41;4.50;;;3.63;;
35891;SDS011;21993;42.672;23.296;2024-03-22T12:28:06;3.67;;;2.63;;
35891;SDS011;21993;42.672;23.296;2024-03-22T12:30:33;3.33;;;2.90;;
35891;SDS011;21993;42.672;23.296;2024-03-22T12:32:59;4.80;;;3.40;;
35891;SDS011;21993;42.672;23.296;2024-03-22T12:35:24;5.27;;;3.33;;
35891;SDS011;21993;42.672;23.296;2024-03-22T12:37:51;4.23;;;3.07;;
35891;SDS011;21993;42.672;23.296;2024-03-22T12:40:16;4.53;;;3.17;;
35891;SDS011;21993;42.672;23.296;2024-03-22T12:42:42;4.70;;;3.07;;
35891;SDS011;21993;42.672;23.296;2024-03-22T12:45:08;6.37;;;3.10;;
35891;SDS011;21993;42.672;23.296;2024-03-22T12:47:33;3.43;;;2.67;;
35891;SDS011;21993;42.672;23.296;2024-03-22T12:49:59;3.93;;;2.73;;
35891;SDS011;21993;42.672;23.296;2024-03-22T12:52:25;3.03;;;2.63;;
35891;SDS011;21993;42.672;23.296;2024-03-22T12:54:50;5.40;;;3.13;;
35891;SDS011;21993;42.672;23.296;2024-03-22T12:57:16;8.03;;;3.60;;
35891;SDS011;21993;42.672;23.296;2024-03-22T12:59:42;3.93;;;2.90;;
35891;SDS011;21993;42.672;23.296;2024-03-22T13:02:08;3.23;;;2.67;;
35891;SDS011;21993;42.672;23.296;2024-03-22T13:04:35;6.57;;;2.93;;
35891;SDS011;21993;42.672;23.296;2024-03-22T13:07:01;5.53;;;3.20;;
35891;SDS011;21993;42.672;23.296;2024-03-22T13:09:27;5.50;;;3.57;;
35891;SDS011;21993;42.672;23.296;2024-03-22T13:11:52;7.30;;;3.97;;
35891;SDS011;21993;42.672;23.296;2024-03-22T13:14:18;3.80;;;2.60;;
35891;SDS011;21993;42.672;23.296;2024-03-22T13:16:45;5.37;;;3.33;;
35891;SDS011;21993;42.672;23.296;2024-03-22T13:19:11;4.50;;;3.50;;
35891;SDS011;21993;42.672;23.296;2024-03-22T13:21:38;4.53;;;2.77;;
35891;SDS011;21993;42.672;23.296;2024-03-22T13:24:04;5.77;;;2.50;;
35891;SDS011;21993;42.672;23.296;2024-03-22T13:26:30;5.00;;;3.37;;
35891;SDS011;21993;42.672;23.296;2024-03-22T13:28:56;3.23;;;2.70;;
35891;SDS011;21993;42.672;23.296;2024-03-22T13:31:22;4.07;;;3.17;;
35891;SDS011;21993;42.672;23.296;2024-03-22T13:33:47;3.63;;;2.73;;
35891;SDS011;21993;42.672;23.296;2024-03-22T13:36:13;5.50;;;3.50;;
35891;SDS011;21993;42.672;23.296;2024-03-22T13:38:38;3.47;;;2.80;;
35891;SDS011;21993;42.672;23.296;2024-03-22T13:41:04;3.80;;;3.20;;
35891;SDS011;21993;42.672;23.296;2024-03-22T13:43:31;4.27;;;2.87;;
35891;SDS011;21993;42.672;23.296;2024-03-22T13:45:57;5.03;;;3.43;;
35891;SDS011;21993;42.672;23.296;2024-03-22T13:48:23;3.30;;;2.60;;
35891;SDS011;21993;42.672;23.296;2024-03-22T13:50:53;4.27;;;3.03;;
35891;SDS011;21993;42.672;23.296;2024-03-22T13:53:20;3.57;;;3.03;;
35891;SDS011;21993;42.672;23.296;2024-03-22T13:55:49;4.07;;;2.97;;
35891;SDS011;21993;42.672;23.296;2024-03-22T13:58:15;4.13;;;3.10;;
35891;SDS011;21993;42.672;23.296;2024-03-22T14:00:41;7.03;;;3.07;;
35891;SDS011;21993;42.672;23.296;2024-03-22T14:03:07;4.23;;;2.67;;
35891;SDS011;21993;42.672;23.296;2024-03-22T14:05:32;3.80;;;2.97;;
35891;SDS011;21993;42.672;23.296;2024-03-22T14:07:58;7.43;;;3.20;;
35891;SDS011;21993;42.672;23.296;2024-03-22T14:10:24;3.40;;;2.70;;
35891;SDS011;21993;42.672;23.296;2024-03-22T14:12:51;5.40;;;4.13;;
35891;SDS011;21993;42.672;23.296;2024-03-22T14:15:17;6.33;;;3.40;;
35891;SDS011;21993;42.672;23.296;2024-03-22T14:17:43;3.83;;;3.00;;
35891;SDS011;21993;42.672;23.296;2024-03-22T14:20:08;4.17;;;3.37;;